Time,TemperatureF,DewpointF,PressureIn,WindDirection,WindDirectionDegrees,WindSpeedMPH,WindSpeedGustMPH,Humidity,HourlyPrecipIn,Conditions,Clouds,dailyrainin,SoftwareType,DateUTC
2014-08-22 00:00:00,55.2,47.4,29.83,SW,214,5.0,9.0,75,0.00,SCT,,0.00,WeatherDisplay:10.37,2014-08-21 23:00:00,
2014-08-22 00:10:00,55.0,47.6,29.83,SSW,212,6.0,15.0,76,0.00,SCT,,0.00,WeatherDisplay:10.37,2014-08-21 23:10:00,
2014-08-22 00:18:00,55.0,47.6,29.83,SSW,197,5.0,9.0,76,0.00,SCT,,0.00,WeatherDisplay:10.37,2014-08-21 23:18:00,
2014-08-22 00:30:00,55.0,47.6,29.83,South,186,6.0,15.0,76,0.00,SCT,,0.00,WeatherDisplay:10.37,2014-08-21 23:30:00,
2014-08-22 00:40:00,54.9,47.9,29.83,SSW,204,12.0,12.0,77,0.00,SCT,,0.00,WeatherDisplay:10.37,2014-08-21 23:40:00,
2014-08-22 00:50:00,54.9,47.8,29.83,South,188,7.0,12.0,77,0.00,SCT,,0.00,WeatherDisplay:10.37,2014-08-21 23:50:00,
2014-08-22 01:00:00,54.9,48.1,29.83,SSW,201,6.0,9.0,78,0.00,SCT,,0.00,WeatherDisplay:10.37,2014-08-22 00:00:00,
2014-08-22 01:10:00,54.7,48.0,29.83,SW,221,6.0,8.0,78,0.00,SCT,,0.00,WeatherDisplay:10.37,2014-08-22 00:10:00,
2014-08-22 01:20:00,54.5,47.8,29.83,SSW,201,9.0,10.0,78,0.00,SCT,,0.00,WeatherDisplay:10.37,2014-08-22 00:20:00,
2014-08-22 01:30:00,54.5,48.1,29.83,SSW,212,5.0,10.0,79,0.00,SCT,,0.00,WeatherDisplay:10.37,2014-08-22 00:30:00,
2014-08-22 01:40:00,54.3,47.6,29.83,SSW,195,7.0,13.0,78,0.00,SCT,,0.00,WeatherDisplay:10.37,2014-08-22 00:40:00,
2014-08-22 01:50:00,54.1,47.8,29.83,SSW,210,7.0,13.0,79,0.00,SCT,,0.00,WeatherDisplay:10.37,2014-08-22 00:50:00,
2014-08-22 02:00:00,53.8,47.8,29.80,South,189,9.0,11.0,80,0.00,SCT,,0.00,WeatherDisplay:10.37,2014-08-22 01:00:00,
2014-08-22 02:10:00,53.6,47.6,29.80,SSW,206,5.0,10.0,80,0.00,SCT,,0.00,WeatherDisplay:10.37,2014-08-22 01:10:00,
2014-08-22 02:20:00,53.4,47.7,29.80,SSW,205,6.0,9.0,81,0.00,SCT,,0.00,WeatherDisplay:10.37,2014-08-22 01:20:00,
2014-08-22 02:30:00,53.4,47.7,29.80,SW,217,6.0,13.0,81,0.00,SCT,,0.00,WeatherDisplay:10.37,2014-08-22 01:30:00,
2014-08-22 02:40:00,53.2,47.6,29.80,SW,216,9.0,13.0,81,0.00,SCT,,0.00,WeatherDisplay:10.37,2014-08-22 01:40:00,
2014-08-22 02:50:00,53.2,47.9,29.80,SSW,208,5.0,9.0,82,0.00,SCT,,0.00,WeatherDisplay:10.37,2014-08-22 01:50:00,
2014-08-22 03:00:00,53.4,48.1,29.80,SW,222,9.0,10.0,82,0.00,SCT,,0.00,WeatherDisplay:10.37,2014-08-22 02:00:00,
2014-08-22 03:10:00,53.2,48.2,29.80,SSW,208,6.0,12.0,83,0.00,SCT,,0.00,WeatherDisplay:10.37,2014-08-22 02:10:00,
2014-08-22 03:20:00,53.2,48.2,29.80,SW,220,6.0,9.0,83,0.00,SCT,,0.00,WeatherDisplay:10.37,2014-08-22 02:20:00,
2014-08-22 03:30:00,53.1,48.4,29.77,SW,220,6.0,9.0,84,0.00,SCT,,0.00,WeatherDisplay:10.37,2014-08-22 02:30:00,
2014-08-22 03:40:00,53.2,48.5,29.77,SW,214,6.0,20.0,84,0.00,SCT,,0.00,WeatherDisplay:10.37,2014-08-22 02:40:00,
2014-08-22 03:50:00,53.2,48.2,29.77,SSW,208,12.0,13.0,83,0.00,SCT,,0.00,WeatherDisplay:10.37,2014-08-22 02:50:00,
2014-08-22 04:00:00,53.2,48.5,29.77,SSW,192,6.0,12.0,84,0.00,SCT,,0.00,WeatherDisplay:10.37,2014-08-22 03:00:00,
2014-08-22 04:10:00,53.2,49.2,29.77,SW,224,7.0,12.0,86,0.00,SCT,,0.00,WeatherDisplay:10.37,2014-08-22 03:10:00,
2014-08-22 04:20:00,53.2,48.8,29.77,SSW,208,9.0,12.0,85,0.00,SCT,,0.00,WeatherDisplay:10.37,2014-08-22 03:20:00,
2014-08-22 04:30:00,53.1,49.0,29.77,SSW,205,3.0,15.0,86,0.00,SCT,,0.00,WeatherDisplay:10.37,2014-08-22 03:30:00,
2014-08-22 04:40:00,53.1,49.0,29.77,SSW,196,8.0,12.0,86,0.00,SCT,,0.00,WeatherDisplay:10.37,2014-08-22 03:40:00,
2014-08-22 04:50:00,53.1,49.3,29.77,SW,215,6.0,7.0,87,0.00,SCT,,0.00,WeatherDisplay:10.37,2014-08-22 03:50:00,
2014-08-22 05:00:00,52.9,48.8,29.77,SSW,209,5.0,10.0,86,0.00,SCT,,0.00,WeatherDisplay:10.37,2014-08-22 04:00:00,
2014-08-22 05:10:00,52.9,49.1,29.77,SW,222,5.0,7.0,87,0.00,SCT,,0.00,WeatherDisplay:10.37,2014-08-22 04:10:00,
2014-08-22 05:20:00,52.9,49.4,29.77,SSW,197,6.0,9.0,88,0.00,SCT,,0.00,WeatherDisplay:10.37,2014-08-22 04:20:00,
2014-08-22 05:30:00,52.9,49.1,29.77,SW,232,5.0,7.0,87,0.00,SCT,,0.00,WeatherDisplay:10.37,2014-08-22 04:30:00,
2014-08-22 05:40:00,52.9,49.1,29.77,SW,234,2.0,6.0,87,0.00,SCT,,0.00,WeatherDisplay:10.37,2014-08-22 04:40:00,
2014-08-22 05:50:00,52.7,48.9,29.77,SSW,206,5.0,6.0,87,0.00,SCT,,0.00,WeatherDisplay:10.37,2014-08-22 04:50:00,
2014-08-22 06:00:00,52.7,48.9,29.77,SSW,213,2.0,6.0,87,0.00,SCT,,0.00,WeatherDisplay:10.37,2014-08-22 05:00:00,
2014-08-22 06:10:00,52.7,48.9,29.77,SW,226,2.0,5.0,87,0.00,SCT,,0.00,WeatherDisplay:10.37,2014-08-22 05:10:00,
2014-08-22 06:20:00,52.7,48.9,29.77,SW,228,2.0,5.0,87,0.00,SCT,,0.00,WeatherDisplay:10.37,2014-08-22 05:20:00,
2014-08-22 06:30:00,52.7,49.2,29.77,SSW,213,5.0,5.0,88,0.00,SCT,,0.00,WeatherDisplay:10.37,2014-08-22 05:30:00,
2014-08-22 06:40:00,52.7,49.2,29.77,WSW,237,3.0,9.0,88,0.00,SCT,,0.00,WeatherDisplay:10.37,2014-08-22 05:40:00,
2014-08-22 06:50:00,52.7,49.2,29.77,SW,236,5.0,7.0,88,0.00,SCT,,0.00,WeatherDisplay:10.37,2014-08-22 05:50:00,
2014-08-22 07:00:00,52.7,49.2,29.77,WSW,242,6.0,9.0,88,0.00,SCT,,0.00,WeatherDisplay:10.37,2014-08-22 06:00:00,
2014-08-22 07:10:00,52.9,49.2,29.77,West,261,2.0,5.0,87,0.00,SCT,,0.00,WeatherDisplay:10.37,2014-08-22 06:10:00,
2014-08-22 07:20:00,53.2,49.5,29.77,SW,230,5.0,7.0,87,0.00,SCT,,0.00,WeatherDisplay:10.37,2014-08-22 06:20:00,
2014-08-22 07:30:00,53.4,50.0,29.77,SW,220,5.0,7.0,88,0.00,SCT,,0.00,WeatherDisplay:10.37,2014-08-22 06:30:00,
2014-08-22 07:40:00,53.8,50.0,29.77,WSW,250,3.0,6.0,87,0.00,SCT,,0.00,WeatherDisplay:10.37,2014-08-22 06:40:00,
2014-08-22 07:50:00,54.0,50.2,29.77,WSW,242,6.0,7.0,87,0.00,SCT,,0.00,WeatherDisplay:10.37,2014-08-22 06:50:00,
2014-08-22 08:00:00,54.1,50.0,29.80,SW,232,5.0,7.0,86,0.00,SCT,,0.00,WeatherDisplay:10.37,2014-08-22 07:00:00,
2014-08-22 08:10:00,54.3,50.2,29.80,WSW,244,3.0,7.0,86,0.00,SCT,,0.00,WeatherDisplay:10.37,2014-08-22 07:10:00,
2014-08-22 08:20:00,54.6,50.5,29.80,SW,236,6.0,8.0,86,0.00,SCT,,0.00,WeatherDisplay:10.37,2014-08-22 07:20:00,
2014-08-22 08:30:00,54.5,50.4,29.80,WSW,241,5.0,7.0,86,0.00,SCT,,0.00,WeatherDisplay:10.37,2014-08-22 07:30:00,
2014-08-22 08:40:00,55.0,50.9,29.80,West,270,8.0,11.0,86,0.00,SCT,,0.00,WeatherDisplay:10.37,2014-08-22 07:40:00,
2014-08-22 08:50:00,55.4,51.0,29.80,WSW,248,7.0,7.0,85,0.00,SCT,,0.00,WeatherDisplay:10.37,2014-08-22 07:50:00,
2014-08-22 09:00:00,55.9,51.2,29.80,South,182,3.0,5.0,84,0.00,SCT,,0.00,WeatherDisplay:10.37,2014-08-22 08:00:00,
2014-08-22 09:10:00,56.0,50.5,29.80,WSW,248,6.0,8.0,82,0.00,SCT,,0.00,WeatherDisplay:10.37,2014-08-22 08:10:00,
2014-08-22 09:20:00,55.8,50.3,29.80,SW,236,3.0,7.0,82,0.00,SCT,,0.00,WeatherDisplay:10.37,2014-08-22 08:20:00,
2014-08-22 09:30:00,56.1,50.4,29.80,WSW,256,3.0,9.0,81,0.00,SCT,,0.00,WeatherDisplay:10.37,2014-08-22 08:30:00,
2014-08-22 09:40:00,56.3,50.2,29.80,West,261,2.0,5.0,80,0.00,SCT,,0.00,WeatherDisplay:10.37,2014-08-22 08:40:00,
2014-08-22 09:50:00,56.3,49.9,29.80,WNW,282,2.0,9.0,79,0.00,SCT,,0.00,WeatherDisplay:10.37,2014-08-22 08:50:00,
2014-08-22 10:00:00,56.5,49.7,29.80,WSW,237,5.0,6.0,78,0.00,SCT,,0.00,WeatherDisplay:10.37,2014-08-22 09:00:00,
2014-08-22 10:10:00,57.0,49.2,29.80,West,263,2.0,6.0,75,0.00,SCT,,0.00,WeatherDisplay:10.37,2014-08-22 09:10:00,
2014-08-22 10:20:00,57.0,49.2,29.80,NW,309,3.0,9.0,75,0.00,SCT,,0.00,WeatherDisplay:10.37,2014-08-22 09:20:00,
2014-08-22 10:30:00,57.5,49.3,29.80,SW,223,5.0,8.0,74,0.00,SCT,,0.00,WeatherDisplay:10.37,2014-08-22 09:30:00,
2014-08-22 10:40:00,57.7,48.8,29.83,WSW,241,3.0,8.0,72,0.00,SCT,,0.00,WeatherDisplay:10.37,2014-08-22 09:40:00,
2014-08-22 10:50:00,58.5,49.1,29.83,WSW,254,6.0,8.0,71,0.00,SCT,,0.00,WeatherDisplay:10.37,2014-08-22 09:50:00,
2014-08-22 11:00:00,59.0,48.4,29.83,WSW,249,6.0,8.0,68,0.00,SCT,,0.00,WeatherDisplay:10.37,2014-08-22 10:00:00,
2014-08-22 11:10:00,59.5,49.0,29.83,SW,235,5.0,13.0,68,0.00,SCT,,0.00,WeatherDisplay:10.37,2014-08-22 10:10:00,
2014-08-22 11:20:00,59.0,48.4,29.83,WNW,282,5.0,9.0,68,0.00,SCT,,0.00,WeatherDisplay:10.37,2014-08-22 10:20:00,
2014-08-22 11:30:00,59.3,48.7,29.83,WSW,248,5.0,10.0,68,0.00,SCT,,0.00,WeatherDisplay:10.37,2014-08-22 10:30:00,
2014-08-22 11:40:00,59.5,48.6,29.83,WSW,254,3.0,8.0,67,0.00,SCT,,0.00,WeatherDisplay:10.37,2014-08-22 10:40:00,
2014-08-22 11:50:00,58.6,48.1,29.83,WSW,249,6.0,10.0,68,0.00,SCT,,0.00,WeatherDisplay:10.37,2014-08-22 10:50:00,
2014-08-22 12:00:00,58.6,48.1,29.83,SW,235,7.0,9.0,68,0.00,SCT,,0.00,WeatherDisplay:10.37,2014-08-22 11:00:00,
2014-08-22 12:10:00,58.8,48.3,29.83,SW,233,5.0,12.0,68,0.00,SCT,,0.00,WeatherDisplay:10.37,2014-08-22 11:10:00,
2014-08-22 12:20:00,59.5,48.2,29.83,WSW,258,3.0,10.0,66,0.00,SCT,,0.00,WeatherDisplay:10.37,2014-08-22 11:20:00,
2014-08-22 12:30:00,60.8,48.5,29.83,WSW,247,3.0,5.0,64,0.00,SCT,,0.00,WeatherDisplay:10.37,2014-08-22 11:30:00,
2014-08-22 12:40:00,60.3,48.4,29.83,WSW,244,3.0,8.0,65,0.00,SCT,,0.00,WeatherDisplay:10.37,2014-08-22 11:40:00,
2014-08-22 12:50:00,60.1,47.9,29.83,WSW,249,7.0,7.0,64,0.00,SCT,,0.00,WeatherDisplay:10.37,2014-08-22 11:50:00,
2014-08-22 13:00:00,60.7,48.4,29.83,WSW,256,3.0,8.0,64,0.00,SCT,,0.00,WeatherDisplay:10.37,2014-08-22 12:00:00,
2014-08-22 13:10:00,61.3,48.6,29.83,WSW,240,5.0,5.0,63,0.00,SCT,,0.00,WeatherDisplay:10.37,2014-08-22 12:10:00,
2014-08-22 13:20:00,61.0,47.9,29.83,West,264,5.0,10.0,62,0.00,SCT,,0.00,WeatherDisplay:10.37,2014-08-22 12:20:00,
2014-08-22 13:30:00,61.2,48.5,29.83,West,267,2.0,7.0,63,0.00,SCT,,0.00,WeatherDisplay:10.37,2014-08-22 12:30:00,
2014-08-22 13:40:00,61.3,48.2,29.83,West,281,8.0,9.0,62,0.00,SCT,,0.00,WeatherDisplay:10.37,2014-08-22 12:40:00,
2014-08-22 13:50:00,61.7,48.1,29.83,WSW,257,5.0,10.0,61,0.00,SCT,,0.00,WeatherDisplay:10.37,2014-08-22 12:50:00,
2014-08-22 14:00:00,61.9,47.8,29.83,West,260,5.0,8.0,60,0.00,SCT,,0.00,WeatherDisplay:10.37,2014-08-22 13:00:00,
2014-08-22 14:10:00,62.4,47.9,29.83,SW,235,5.0,9.0,59,0.00,SCT,,0.00,WeatherDisplay:10.37,2014-08-22 13:10:00,
2014-08-22 14:20:00,62.7,48.2,29.83,WSW,251,3.0,10.0,59,0.00,SCT,,0.00,WeatherDisplay:10.37,2014-08-22 13:20:00,
2014-08-22 14:30:00,62.6,47.6,29.83,West,272,5.0,7.0,58,0.00,SCT,,0.00,WeatherDisplay:10.37,2014-08-22 13:30:00,
2014-08-22 14:40:00,63.0,47.9,29.83,WSW,242,7.0,9.0,58,0.00,SCT,,0.00,WeatherDisplay:10.37,2014-08-22 13:40:00,
2014-08-22 14:50:00,63.0,47.0,29.83,SW,227,3.0,12.0,56,0.00,SCT,,0.00,WeatherDisplay:10.37,2014-08-22 13:50:00,
2014-08-22 15:00:00,63.0,47.0,29.83,SW,236,5.0,9.0,56,0.00,SCT,,0.00,WeatherDisplay:10.37,2014-08-22 14:00:00,
2014-08-22 15:10:00,64.0,48.0,29.83,West,274,5.0,9.0,56,0.00,SCT,,0.00,WeatherDisplay:10.37,2014-08-22 14:10:00,
2014-08-22 15:20:00,63.7,47.2,29.83,WSW,256,6.0,16.0,55,0.00,SCT,,0.00,WeatherDisplay:10.37,2014-08-22 14:20:00,
2014-08-22 15:30:00,63.9,47.4,29.83,SW,232,6.0,12.0,55,0.00,SCT,,0.00,WeatherDisplay:10.37,2014-08-22 14:30:00,
2014-08-22 15:40:00,65.3,48.2,29.83,WSW,254,3.0,7.0,54,0.00,SCT,,0.00,WeatherDisplay:10.37,2014-08-22 14:40:00,
2014-08-22 15:50:00,65.8,48.7,29.83,West,264,5.0,8.0,54,0.00,SCT,,0.00,WeatherDisplay:10.37,2014-08-22 14:50:00,
2014-08-22 16:00:00,66.1,48.5,29.83,SW,215,2.0,10.0,53,0.00,SCT,,0.00,WeatherDisplay:10.37,2014-08-22 15:00:00,
2014-08-22 16:10:00,64.8,47.2,29.83,West,260,6.0,11.0,53,0.00,SCT,,0.00,WeatherDisplay:10.37,2014-08-22 15:10:00,
2014-08-22 16:20:00,63.0,46.0,29.83,WSW,249,9.0,13.0,54,0.00,SCT,,0.00,WeatherDisplay:10.37,2014-08-22 15:20:00,
2014-08-22 16:30:00,62.1,46.2,29.85,WSW,249,5.0,9.0,56,0.00,SCT,,0.00,WeatherDisplay:10.37,2014-08-22 15:30:00,
2014-08-22 16:40:00,62.6,46.7,29.85,WNW,285,5.0,9.0,56,0.00,SCT,,0.00,WeatherDisplay:10.37,2014-08-22 15:40:00,
2014-08-22 16:50:00,62.4,46.5,29.85,NNW,331,6.0,9.0,56,0.00,SCT,,0.00,WeatherDisplay:10.37,2014-08-22 15:50:00,
2014-08-22 17:00:00,62.0,45.7,29.85,WNW,301,5.0,7.0,55,0.00,SCT,,0.00,WeatherDisplay:10.37,2014-08-22 16:00:00,
2014-08-22 17:10:00,61.9,45.5,29.85,NW,317,1.0,6.0,55,0.00,SCT,,0.00,WeatherDisplay:10.37,2014-08-22 16:10:00,
2014-08-22 17:20:00,62.6,46.2,29.85,WNW,297,3.0,6.0,55,0.00,SCT,,0.00,WeatherDisplay:10.37,2014-08-22 16:20:00,
2014-08-22 17:30:00,62.4,46.0,29.85,NNW,328,5.0,9.0,55,0.00,SCT,,0.00,WeatherDisplay:10.37,2014-08-22 16:30:00,
2014-08-22 17:40:00,62.4,46.0,29.85,WNW,302,3.0,7.0,55,0.00,SCT,,0.00,WeatherDisplay:10.37,2014-08-22 16:40:00,
2014-08-22 17:50:00,61.9,45.5,29.85,WSW,258,5.0,8.0,55,0.00,SCT,,0.00,WeatherDisplay:10.37,2014-08-22 16:50:00,
2014-08-22 18:00:00,61.9,45.5,29.85,NE,44,3.0,6.0,55,0.00,SCT,,0.00,WeatherDisplay:10.37,2014-08-22 17:00:00,
2014-08-22 18:10:00,61.3,44.5,29.85,NW,315,5.0,9.0,54,0.00,SCT,,0.00,WeatherDisplay:10.37,2014-08-22 17:10:00,
2014-08-22 18:20:00,61.4,44.6,29.85,NW,321,5.0,7.0,54,0.00,SCT,,0.00,WeatherDisplay:10.37,2014-08-22 17:20:00,
2014-08-22 18:30:00,61.2,44.4,29.85,NNW,329,3.0,7.0,54,0.00,SCT,,0.00,WeatherDisplay:10.37,2014-08-22 17:30:00,
2014-08-22 18:40:00,60.8,44.0,29.85,WNW,290,3.0,6.0,54,0.00,SCT,,0.00,WeatherDisplay:10.37,2014-08-22 17:40:00,
2014-08-22 18:50:00,60.9,44.6,29.85,NNW,332,2.0,5.0,55,0.00,SCT,,0.00,WeatherDisplay:10.37,2014-08-22 17:50:00,
2014-08-22 19:00:00,60.8,44.5,29.88,NW,315,2.0,7.0,55,0.00,SCT,,0.00,WeatherDisplay:10.37,2014-08-22 18:00:00,
2014-08-22 19:10:00,60.4,44.7,29.88,WSW,256,5.0,7.0,56,0.00,SCT,,0.00,WeatherDisplay:10.37,2014-08-22 18:10:00,
2014-08-22 19:20:00,60.3,45.4,29.88,NW,305,3.0,6.0,58,0.00,SCT,,0.00,WeatherDisplay:10.37,2014-08-22 18:20:00,
2014-08-22 19:30:00,60.1,44.3,29.88,WNW,285,3.0,6.0,56,0.00,SCT,,0.00,WeatherDisplay:10.37,2014-08-22 18:30:00,
2014-08-22 19:40:00,59.9,44.2,29.88,NW,305,5.0,5.0,56,0.00,SCT,,0.00,WeatherDisplay:10.37,2014-08-22 18:40:00,
2014-08-22 19:50:00,59.4,43.7,29.88,NW,304,3.0,6.0,56,0.00,SCT,,0.00,WeatherDisplay:10.37,2014-08-22 18:50:00,
2014-08-22 20:00:00,59.2,43.5,29.88,WNW,292,1.0,7.0,56,0.00,SCT,,0.00,WeatherDisplay:10.37,2014-08-22 19:00:00,
2014-08-22 20:10:00,59.4,43.7,29.88,West,275,0.0,4.0,56,0.00,SCT,,0.00,WeatherDisplay:10.37,2014-08-22 19:10:00,